createdAt,value
2023-03-15T00:09:39.532Z,89.84
2023-03-15T00:24:29.919Z,90.22
2023-03-15T00:39:19.268Z,90.97
2023-03-15T00:54:08.974Z,91.02
2023-03-15T01:08:59.196Z,88.59
2023-03-15T01:23:49.942Z,87.48
2023-03-15T01:38:39.746Z,86.21
2023-03-15T01:53:30.186Z,86.27
2023-03-15T02:08:20.451Z,85.02
2023-03-15T02:23:09.965Z,85.73
2023-03-15T02:38:00.311Z,86.52
2023-03-15T02:52:49.790Z,85.29
2023-03-15T03:07:39.595Z,85.02
2023-03-15T03:22:31.225Z,85.28
2023-03-15T03:37:21.006Z,85.88
2023-03-15T03:52:10.863Z,85.34
2023-03-15T04:07:00.960Z,85.63
2023-03-15T04:21:51.669Z,86.49
2023-03-15T04:36:40.835Z,86.08
2023-03-15T04:51:30.187Z,86.49
2023-03-15T05:06:20.615Z,86.63
2023-03-15T05:21:10.762Z,86.92
2023-03-15T05:36:00.374Z,86.40
2023-03-15T05:50:49.884Z,86.13
2023-03-15T06:05:39.909Z,85.60
2023-03-15T06:20:30.267Z,85.19
2023-03-15T06:35:20.789Z,84.32
2023-03-15T06:50:11.940Z,83.15
2023-03-15T07:05:02.463Z,80.83
2023-03-15T07:19:56.543Z,78.32
2023-03-15T07:34:44.025Z,76.01
2023-03-15T07:49:35.631Z,74.33
2023-03-15T08:04:25.509Z,71.62
2023-03-15T08:19:16.637Z,69.27
2023-03-15T08:34:07.938Z,67.34
2023-03-15T08:48:59.728Z,65.51
2023-03-15T09:03:52.044Z,62.66
2023-03-15T09:18:42.309Z,60.78
2023-03-15T09:33:33.184Z,59.06
2023-03-15T09:48:31.170Z,58.42
2023-03-15T10:03:32.515Z,56.58
2023-03-15T10:18:28.438Z,55.75
2023-03-15T10:33:22.249Z,50.14
2023-03-15T10:48:15.330Z,49.75
2023-03-15T11:03:07.998Z,52.27
2023-03-15T11:17:59.115Z,63.64
2023-03-15T11:32:49.609Z,66.50
2023-03-15T11:47:55.978Z,66.68
2023-03-15T12:02:50.585Z,70.61
2023-03-15T12:17:50.776Z,68.05
2023-03-15T12:32:46.353Z,66.19
2023-03-15T12:47:52.220Z,64.26
2023-03-15T13:02:51.901Z,62.62
2023-03-15T13:17:48.248Z,63.49
2023-03-15T13:32:37.959Z,74.53
2023-03-15T13:47:27.346Z,75.87
2023-03-15T14:02:28.256Z,77.17
2023-03-15T14:17:24.670Z,77.64
2023-03-15T14:32:24.392Z,75.07
2023-03-15T14:47:19.844Z,73.42
2023-03-15T15:02:10.124Z,74.61
2023-03-15T15:17:00.719Z,73.49
2023-03-15T15:31:51.527Z,75.11
2023-03-15T15:46:42.038Z,74.00
2023-03-15T16:01:32.490Z,75.51
2023-03-15T16:16:23.506Z,75.27
2023-03-15T16:31:14.041Z,76.03
2023-03-15T16:46:16.655Z,74.61
2023-03-15T17:01:11.358Z,76.15
2023-03-15T17:16:02.024Z,77.15
2023-03-15T17:30:59.596Z,78.19
2023-03-15T17:45:42.019Z,80.32
2023-03-15T18:00:31.876Z,80.77
2023-03-15T18:15:21.507Z,81.71
2023-03-15T18:30:11.604Z,81.14
2023-03-15T18:59:52.961Z,81.59
2023-03-15T19:14:43.711Z,82.79
2023-03-15T19:29:34.556Z,84.57
2023-03-15T19:44:24.788Z,84.16
2023-03-15T19:59:14.362Z,83.74
2023-03-15T20:28:55.366Z,84.02
2023-03-15T20:43:44.712Z,84.14
2023-03-15T20:58:35.033Z,83.83
2023-03-15T21:13:25.681Z,84.63
2023-03-15T21:28:15.723Z,84.56
2023-03-15T21:43:05.794Z,83.85
2023-03-15T21:57:55.689Z,83.48
2023-03-15T22:12:45.452Z,82.86
2023-03-15T22:27:35.574Z,82.06
2023-03-15T22:42:26.431Z,82.37
2023-03-15T22:57:17.217Z,82.35
2023-03-15T23:12:08.605Z,82.60
2023-03-15T23:27:00.195Z,82.16
2023-03-15T23:41:49.967Z,81.41
2023-03-15T23:56:40.149Z,81.01
